Terminal Aerodrome Forecast
Issued by NWS Birmingham, AL

Home | Current Version | Previous Version | Text Only | Print | Product List | Glossary On
Versions: 1 2 3 4 5 6 7 8 9 10 11 12
894
FTUS44 KBMX 221723
TAFBHM
TAF
KBHM 221723Z 2218/2318 13013G20KT 3SM SHRA OVC015
      TEMPO 2220/2224 1SM TSRA SCT007CB OVC015
     FM230400 15005KT P6SM BKN015
     FM230800 18005KT P6SM BKN007
     FM231600 23005KT 6SM -DZ OVC015=

USA.gov is the U.S. government's official web portal to all federal, state and local government web resources and services.